createdAt,value
2023-01-30T00:00:45.132Z,100.00
2023-01-30T00:10:51.558Z,100.00
2023-01-30T00:20:57.532Z,100.00
2023-01-30T00:31:01.948Z,100.00
2023-01-30T00:41:05.272Z,100.00
2023-01-30T00:51:09.632Z,100.00
2023-01-30T01:01:12.546Z,100.00
2023-01-30T01:11:24.594Z,100.00
2023-01-30T01:21:28.163Z,100.00
2023-01-30T01:31:32.872Z,100.00
2023-01-30T01:41:35.866Z,100.00
2023-01-30T01:51:46.893Z,100.00
2023-01-30T02:01:53.225Z,100.00
2023-01-30T02:12:03.171Z,100.00
2023-01-30T02:22:23.543Z,100.00
2023-01-30T02:32:32.715Z,100.00
2023-01-30T02:42:39.906Z,100.00
2023-01-30T02:52:46.352Z,100.00
2023-01-30T03:03:11.499Z,100.00
2023-01-30T03:13:24.995Z,100.00
2023-01-30T03:23:28.607Z,100.00
2023-01-30T03:33:32.880Z,100.00
2023-01-30T03:43:35.651Z,100.00
2023-01-30T03:53:42.504Z,100.00
2023-01-30T04:03:47.210Z,100.00
2023-01-30T04:13:52.443Z,100.00
2023-01-30T04:23:55.753Z,100.00
2023-01-30T04:34:00.066Z,100.00
2023-01-30T04:44:03.072Z,100.00
2023-01-30T04:54:35.725Z,100.00
2023-01-30T05:04:38.599Z,100.00
2023-01-30T05:14:42.736Z,100.00
2023-01-30T05:24:45.689Z,100.00
2023-01-30T05:34:50.731Z,100.00
2023-01-30T05:44:53.488Z,100.00
2023-01-30T05:54:57.646Z,100.00
2023-01-30T06:05:00.465Z,100.00
2023-01-30T06:15:04.676Z,100.00
2023-01-30T06:25:07.723Z,100.00
2023-01-30T06:35:11.960Z,99.83
2023-01-30T06:45:15.232Z,99.46
2023-01-30T06:55:20.891Z,98.02
2023-01-30T07:05:23.818Z,96.90
2023-01-30T07:15:28.019Z,96.74
2023-01-30T07:25:31.415Z,96.63
2023-01-30T07:35:36.881Z,96.48
2023-01-30T07:45:40.990Z,96.92
2023-01-30T07:55:45.313Z,96.03
2023-01-30T08:05:48.260Z,95.69
2023-01-30T08:15:52.745Z,93.50
2023-01-30T08:25:55.782Z,92.85
2023-01-30T08:36:00.412Z,91.72
2023-01-30T08:46:03.582Z,90.44
2023-01-30T08:56:08.321Z,89.54
2023-01-30T09:06:11.361Z,87.74
2023-01-30T09:16:15.673Z,88.19
2023-01-30T09:26:18.455Z,86.69
2023-01-30T09:36:22.730Z,85.18
2023-01-30T09:46:32.227Z,83.42
2023-01-30T09:56:36.875Z,82.52
2023-01-30T10:06:52.208Z,81.25
2023-01-30T10:17:08.577Z,79.76
2023-01-30T10:27:16.263Z,78.71
2023-01-30T10:37:28.227Z,77.35
2023-01-30T10:47:56.267Z,76.30
2023-01-30T10:58:06.585Z,76.28
2023-01-30T11:08:13.003Z,75.63
2023-01-30T11:28:42.369Z,75.18
2023-01-30T11:38:55.589Z,73.85
2023-01-30T11:49:29.148Z,73.29
2023-01-30T11:59:27.734Z,73.52
2023-01-30T12:09:33.470Z,73.44
2023-01-30T12:19:43.325Z,71.26
2023-01-30T12:29:53.023Z,70.88
2023-01-30T12:40:02.935Z,71.30
2023-01-30T12:50:21.324Z,72.20
2023-01-30T13:00:34.589Z,69.91
2023-01-30T13:10:40.658Z,68.34
2023-01-30T13:20:59.005Z,69.12
2023-01-30T13:31:03.659Z,68.60
2023-01-30T13:41:11.963Z,69.58
2023-01-30T13:51:22.712Z,67.88
2023-01-30T14:01:49.797Z,67.13
2023-01-30T14:11:58.582Z,68.47
2023-01-30T14:22:03.964Z,68.42
2023-01-30T14:32:31.816Z,69.21
2023-01-30T14:42:36.147Z,70.40
2023-01-30T14:52:41.264Z,70.65
2023-01-30T15:02:49.620Z,70.29
2023-01-30T15:13:02.079Z,71.17
2023-01-30T15:23:43.061Z,71.63
2023-01-30T15:33:47.997Z,71.71
2023-01-30T15:44:07.060Z,72.44
2023-01-30T15:54:12.297Z,71.96
2023-01-30T16:04:29.596Z,72.17
2023-01-30T16:14:34.239Z,72.13
2023-01-30T16:24:39.323Z,72.38
2023-01-30T16:34:42.114Z,73.20
2023-01-30T16:44:46.513Z,74.43
2023-01-30T16:54:52.137Z,74.90
2023-01-30T17:04:56.822Z,76.57
2023-01-30T17:15:27.708Z,78.04
2023-01-30T17:25:38.623Z,78.82
2023-01-30T17:35:41.809Z,79.05
2023-01-30T17:45:46.207Z,79.60
2023-01-30T17:55:49.557Z,80.65
2023-01-30T18:05:53.958Z,81.58
2023-01-30T18:16:00.889Z,82.01
2023-01-30T18:26:05.596Z,83.19
2023-01-30T18:36:10.715Z,84.71
2023-01-30T18:46:16.840Z,85.82
2023-01-30T18:56:21.884Z,86.26
2023-01-30T19:06:26.677Z,88.43
2023-01-30T19:16:32.492Z,88.46
2023-01-30T19:26:37.162Z,90.95
2023-01-30T19:36:41.507Z,91.73
2023-01-30T19:46:46.327Z,92.72
2023-01-30T19:56:49.541Z,93.00
2023-01-30T20:06:53.928Z,92.74
2023-01-30T20:16:56.996Z,92.32
2023-01-30T20:27:01.679Z,93.67
2023-01-30T20:37:04.873Z,94.41
2023-01-30T20:47:09.924Z,93.41
2023-01-30T20:57:13.033Z,93.88
2023-01-30T21:07:17.462Z,94.30
2023-01-30T21:17:20.670Z,95.59
2023-01-30T21:27:25.384Z,95.81
2023-01-30T21:37:46.064Z,98.14
2023-01-30T21:47:54.319Z,98.58
2023-01-30T21:57:58.081Z,99.57
2023-01-30T22:08:02.914Z,100.00
2023-01-30T22:18:06.117Z,100.00
2023-01-30T22:28:10.458Z,100.00
2023-01-30T22:38:13.467Z,100.00
2023-01-30T22:48:17.815Z,100.00
2023-01-30T22:58:20.766Z,100.00
2023-01-30T23:08:25.765Z,100.00
2023-01-30T23:18:47.576Z,100.00
2023-01-30T23:28:52.201Z,100.00
2023-01-30T23:38:56.825Z,100.00
2023-01-30T23:49:02.611Z,100.00
2023-01-30T23:59:06.368Z,100.00
